Time;durP1;ratioP1;P1;durP2;ratioP2;P2;SDS_P1;SDS_P2;PMS_P1;PMS_P2;Temp;Humidity;BMP_temperature;BMP_pressure;BME280_temperature;BME280_humidity;BME280_pressure;Samples;Min_cycle;Max_cycle;Signal;HPM_P1;HPM_P2
2023/04/21 00:01:00;;;;;;;34.78;28.13;;;;;;;6.27;93.54;101464.22;4891348;29;20036;-68
2023/04/21 00:03:27;;;;;;;35.70;27.73;;;;;;;6.30;93.56;101459.91;4898172;29;20481;-72
2023/04/21 00:05:57;;;;;;;34.53;27.17;;;;;;;6.29;93.93;101452.09;4901913;29;20036;-69
2023/04/21 00:08:23;;;;;;;34.33;27.13;;;;;;;6.32;93.32;101454.72;4911511;29;20101;-69
2023/04/21 00:10:51;;;;;;;31.85;25.17;;;;;;;6.31;93.62;101443.47;4878284;29;20476;-69
2023/04/21 00:13:16;;;;;;;32.53;26.70;;;;;;;6.28;94.12;101440.81;4885449;29;20040;-69
2023/04/21 00:15:43;;;;;;;32.58;26.42;;;;;;;6.27;93.86;101432.97;4882317;29;20089;-69
2023/04/21 00:18:09;;;;;;;34.20;27.85;;;;;;;6.25;94.13;101432.97;4901977;29;20040;-68
2023/04/21 00:20:35;;;;;;;39.03;27.48;;;;;;;6.26;94.34;101431.22;4896288;29;20055;-69
2023/04/21 00:23:02;;;;;;;34.13;27.23;;;;;;;6.29;95.11;101439.06;4901393;29;20381;-68
2023/04/21 00:25:27;;;;;;;33.85;25.38;;;;;;;6.28;94.70;101425.19;4870354;29;20036;-69
2023/04/21 00:27:53;;;;;;;32.90;26.35;;;;;;;6.29;93.70;101424.31;4886087;29;20051;-72
2023/04/21 00:30:18;;;;;;;35.80;26.73;;;;;;;6.26;94.81;101411.25;4869962;29;20477;-72
2023/04/21 00:32:44;;;;;;;31.27;25.70;;;;;;;6.28;94.19;101419.09;4899747;29;20489;-73
2023/04/21 00:35:09;;;;;;;34.17;26.70;;;;;;;6.25;94.36;101427.75;4869458;29;20042;-72
2023/04/21 00:37:35;;;;;;;35.28;25.45;;;;;;;6.23;94.96;101421.63;4882663;29;20405;-72
2023/04/21 00:40:03;;;;;;;34.38;25.85;;;;;;;6.19;95.26;101420.72;4870512;29;20128;-72
2023/04/21 00:42:28;;;;;;;33.30;25.50;;;;;;;6.19;94.63;101415.53;4870249;29;20115;-72
2023/04/21 00:44:54;;;;;;;33.28;25.85;;;;;;;6.19;94.90;101412.03;4866687;29;20044;-73
2023/04/21 00:47:19;;;;;;;37.35;27.30;;;;;;;6.18;95.25;101420.69;4901206;29;20134;-72
2023/04/21 00:49:46;;;;;;;33.25;25.65;;;;;;;6.16;95.28;101422.38;4881520;29;20044;-72
2023/04/21 00:52:13;;;;;;;35.95;26.77;;;;;;;6.13;95.24;101418.00;4866740;29;20263;-72
2023/04/21 00:54:39;;;;;;;37.38;27.55;;;;;;;6.13;95.68;101411.94;4892307;29;20127;-68
2023/04/21 00:57:06;;;;;;;34.83;25.92;;;;;;;6.13;95.96;101418.00;4914754;29;20138;-69
2023/04/21 00:59:32;;;;;;;35.33;26.35;;;;;;;6.11;96.20;101413.66;4882411;29;20047;-69
2023/04/21 01:01:58;;;;;;;36.97;27.48;;;;;;;6.09;96.39;101411.00;4884942;29;20048;-68
2023/04/21 01:04:23;;;;;;;36.75;28.02;;;;;;;6.10;96.63;101398.88;4899778;29;20131;-68
2023/04/21 01:06:49;;;;;;;36.13;27.58;;;;;;;6.09;96.99;101402.31;4865739;29;20139;-68
2023/04/21 01:09:15;;;;;;;36.80;26.52;;;;;;;6.08;96.13;101401.47;4901310;29;20041;-69
2023/04/21 01:11:43;;;;;;;39.03;27.48;;;;;;;6.07;96.27;101404.91;4900366;29;20493;-68
2023/04/21 01:14:08;;;;;;;38.15;27.38;;;;;;;6.08;96.56;101398.84;4869467;29;20075;-69
2023/04/21 01:16:34;;;;;;;34.55;26.38;;;;;;;6.08;96.48;101398.84;4869666;29;20132;-68
2023/04/21 01:19:00;;;;;;;38.97;28.58;;;;;;;6.09;96.60;101397.97;4869964;29;20067;-68
2023/04/21 01:21:27;;;;;;;39.58;26.65;;;;;;;6.06;97.45;101393.63;4899731;29;20040;-68
2023/04/21 01:23:53;;;;;;;39.60;27.92;;;;;;;6.06;97.57;101387.53;4883475;29;20564;-69
2023/04/21 01:26:20;;;;;;;37.75;28.20;;;;;;;6.06;98.02;101392.72;4883391;29;20047;-68
2023/04/21 01:28:47;;;;;;;39.33;28.40;;;;;;;6.04;98.07;101386.66;4867520;29;20111;-69
2023/04/21 01:31:16;;;;;;;39.65;28.35;;;;;;;6.03;98.65;101395.28;4892460;29;20044;-68
2023/04/21 01:33:42;;;;;;;39.53;27.75;;;;;;;6.02;98.46;101391.84;4895296;29;20138;-69
2023/04/21 01:36:08;;;;;;;40.10;28.80;;;;;;;6.03;97.88;101387.50;4886988;29;20135;-69
2023/04/21 01:38:37;;;;;;;40.95;28.92;;;;;;;6.02;98.34;101390.94;4876428;29;20414;-68
2023/04/21 01:41:03;;;;;;;38.67;28.48;;;;;;;6.00;98.33;101380.50;4896395;29;20039;-69
2023/04/21 01:43:29;;;;;;;36.38;26.55;;;;;;;6.00;98.19;101377.91;4874874;29;20051;-68
2023/04/21 01:45:54;;;;;;;34.25;25.73;;;;;;;6.02;98.29;101375.31;4889283;29;20511;-68
2023/04/21 01:48:20;;;;;;;35.92;25.52;;;;;;;6.01;97.78;101361.44;4884671;29;20480;-68
2023/04/21 01:50:45;;;;;;;34.58;26.05;;;;;;;6.01;97.30;101368.41;4897609;29;20044;-68
2023/04/21 01:53:11;;;;;;;35.95;25.35;;;;;;;6.01;97.32;101353.66;4901636;29;20104;-69
2023/04/21 01:55:36;;;;;;;37.72;28.52;;;;;;;5.99;97.81;101364.88;4879159;29;20115;-68
2023/04/21 01:58:01;;;;;;;39.72;27.45;;;;;;;5.98;97.64;101366.63;4883095;29;20654;-68
2023/04/21 02:00:27;;;;;;;38.22;27.40;;;;;;;6.00;nan;101364.03;4874384;29;20035;-69
2023/04/21 02:02:52;;;;;;;37.95;27.25;;;;;;;5.99;97.99;101357.97;4882710;29;20043;-69
2023/04/21 02:05:18;;;;;;;40.53;28.83;;;;;;;5.97;98.41;101357.06;4868592;29;20032;-69
2023/04/21 02:07:44;;;;;;;38.95;27.63;;;;;;;5.96;98.58;101339.69;4883053;29;20036;-69
2023/04/21 02:10:10;;;;;;;40.92;28.65;;;;;;;5.94;98.36;101330.09;4895695;29;20040;-69
2023/04/21 02:12:35;;;;;;;42.60;29.52;;;;;;;5.93;99.26;101336.13;4859392;29;20135;-68
2023/04/21 02:15:01;;;;;;;43.30;30.60;;;;;;;5.93;98.94;101336.13;4881628;29;20131;-68
2023/04/21 02:17:26;;;;;;;41.97;29.23;;;;;;;5.90;98.96;101330.06;4897151;29;20063;-69
2023/04/21 02:19:52;;;;;;;44.70;30.25;;;;;;;5.94;99.13;101330.09;4884295;29;20062;-68
2023/04/21 02:22:17;;;;;;;52.75;33.08;;;;;;;5.92;99.63;101323.97;4900152;29;20095;-68
2023/04/21 02:24:43;;;;;;;46.10;31.17;;;;;;;5.92;99.94;101331.78;4866087;29;20045;-69
2023/04/21 02:27:08;;;;;;;48.60;32.72;;;;;;;5.92;99.52;101329.19;4881544;29;20041;-68
2023/04/21 02:29:34;;;;;;;52.42;33.05;;;;;;;5.94;99.94;101332.69;4884083;29;20404;-68
2023/04/21 02:31:59;;;;;;;48.63;33.05;;;;;;;5.95;99.65;101331.81;4884535;29;20516;-68
2023/04/21 02:34:25;;;;;;;49.92;31.88;;;;;;;5.92;99.70;101331.78;4856298;29;20135;-68
2023/04/21 02:36:51;;;;;;;48.08;31.92;;;;;;;5.92;100.00;101329.19;4868293;29;20507;-69
2023/04/21 02:39:16;;;;;;;50.33;32.90;;;;;;;5.93;100.00;101328.34;4867836;29;20036;-68
2023/04/21 02:41:41;;;;;;;50.08;33.67;;;;;;;5.90;100.00;101322.25;4864888;29;20143;-69
2023/04/21 02:44:07;;;;;;;51.10;34.50;;;;;;;5.94;100.00;101317.94;4867682;29;20059;-69
2023/04/21 02:46:32;;;;;;;54.60;35.80;;;;;;;5.90;100.00;101314.44;4890202;29;20101;-69
2023/04/21 02:48:58;;;;;;;52.40;34.50;;;;;;;5.93;100.00;101315.34;4898806;29;20460;-69
2023/04/21 02:51:23;;;;;;;53.88;34.05;;;;;;;5.94;100.00;101315.34;4882909;29;20036;-68
2023/04/21 02:53:49;;;;;;;51.78;34.03;;;;;;;5.92;100.00;101301.47;4912189;29;20446;-69
2023/04/21 02:56:14;;;;;;;57.83;34.97;;;;;;;5.93;100.00;101305.78;4855300;29;20519;-69
2023/04/21 02:58:40;;;;;;;54.33;34.00;;;;;;;5.95;100.00;101303.22;4868523;29;20040;-68
2023/04/21 03:01:05;;;;;;;53.78;34.90;;;;;;;5.93;100.00;101297.13;4882080;29;20448;-72
2023/04/21 03:03:32;;;;;;;53.25;34.83;;;;;;;5.97;100.00;101304.13;4896210;29;20171;-72
2023/04/21 03:06:04;;;;;;;52.17;34.88;;;;;;;5.97;100.00;101305.03;4868086;29;20040;-72
2023/04/21 03:08:30;;;;;;;54.65;35.45;;;;;;;5.97;100.00;101309.31;4899239;29;20477;-72
2023/04/21 03:10:56;;;;;;;58.20;35.35;;;;;;;5.98;100.00;101308.53;4889773;29;20443;-73
2023/04/21 03:13:23;;;;;;;56.83;36.70;;;;;;;5.98;100.00;101304.19;4898926;29;20174;-72
2023/04/21 03:15:49;;;;;;;58.88;37.50;;;;;;;5.97;100.00;101304.13;4899150;29;20044;-73
2023/04/21 03:18:14;;;;;;;57.15;36.78;;;;;;;5.98;100.00;101303.31;4892223;29;20036;-72
2023/04/21 03:20:41;;;;;;;57.05;37.10;;;;;;;5.99;100.00;101302.44;4898303;29;20040;-72
2023/04/21 03:23:06;;;;;;;51.88;34.35;;;;;;;5.98;100.00;101303.31;4888165;29;20040;-72
2023/04/21 03:25:32;;;;;;;55.92;35.67;;;;;;;5.96;100.00;101292.84;4875407;29;20055;-72
2023/04/21 03:27:57;;;;;;;54.78;35.35;;;;;;;5.92;100.00;101291.06;4872441;29;20052;-72
2023/04/21 03:30:26;;;;;;;53.05;34.75;;;;;;;5.92;100.00;101287.56;4898310;29;20044;-72
2023/04/21 03:32:54;;;;;;;55.63;35.33;;;;;;;5.92;100.00;101288.47;4899421;29;20107;-72
2023/04/21 03:35:20;;;;;;;56.80;35.15;;;;;;;5.87;100.00;101293.56;4883680;29;20048;-73
2023/04/21 03:37:45;;;;;;;56.72;36.28;;;;;;;5.85;100.00;101292.69;4905595;29;20048;-72
2023/04/21 03:40:11;;;;;;;57.05;37.35;;;;;;;5.82;100.00;101284.84;4898624;29;20120;-72
2023/04/21 03:42:36;;;;;;;60.90;37.05;;;;;;;5.79;100.00;101290.00;4896327;29;20040;-72
2023/04/21 03:45:09;;;;;;;56.35;36.67;;;;;;;5.77;100.00;101286.47;4880603;29;20046;-72
2023/04/21 03:47:37;;;;;;;61.83;37.67;;;;;;;5.78;100.00;101293.44;4878782;29;20107;-72
2023/04/21 03:50:04;;;;;;;61.95;37.80;;;;;;;5.77;100.00;101288.22;4891107;29;20039;-72
2023/04/21 03:52:30;;;;;;;63.25;38.90;;;;;;;5.74;100.00;101276.03;4890369;29;20044;-72
2023/04/21 03:54:55;;;;;;;58.50;36.88;;;;;;;5.70;100.00;101276.84;4872352;29;20059;-72
2023/04/21 03:57:20;;;;;;;62.42;38.17;;;;;;;5.67;100.00;101276.78;4883231;29;20062;-69
2023/04/21 03:59:46;;;;;;;59.47;37.25;;;;;;;5.66;100.00;101278.53;4866544;29;20448;-69
2023/04/21 04:02:11;;;;;;;59.08;38.60;;;;;;;5.62;100.00;101286.28;4864995;29;20052;-68
2023/04/21 04:04:37;;;;;;;63.00;37.50;;;;;;;5.58;100.00;101290.53;4865513;29;20084;-69
2023/04/21 04:07:02;;;;;;;64.03;39.05;;;;;;;5.58;100.00;101292.25;4882308;29;20047;-69
2023/04/21 04:09:28;;;;;;;62.25;37.03;;;;;;;5.54;100.00;101296.53;4896005;29;20047;-69
2023/04/21 04:11:53;;;;;;;62.45;38.67;;;;;;;5.54;100.00;101293.94;4865740;29;20071;-68
2023/04/21 04:14:19;;;;;;;62.38;40.08;;;;;;;5.52;100.00;101298.25;4885707;29;20095;-69
2023/04/21 04:16:44;;;;;;;57.55;36.50;;;;;;;5.47;100.00;101292.06;4915096;29;20465;-69
2023/04/21 04:19:11;;;;;;;57.53;36.22;;;;;;;5.44;100.00;101295.50;4894530;29;20047;-69
2023/04/21 04:21:36;;;;;;;58.17;35.70;;;;;;;5.40;100.00;101295.41;4883935;29;20139;-69
2023/04/21 04:24:04;;;;;;;61.60;37.08;;;;;;;5.34;100.00;101302.28;4883952;29;20134;-69
2023/04/21 04:26:29;;;;;;;62.95;37.78;;;;;;;5.33;100.00;101294.44;4882657;29;20053;-69
2023/04/21 04:28:55;;;;;;;63.13;38.15;;;;;;;5.30;100.00;101295.28;4898689;29;20047;-69
2023/04/21 04:31:24;;;;;;;61.08;37.95;;;;;;;5.34;100.00;101301.38;4885397;29;20484;-69
2023/04/21 04:33:52;;;;;;;61.50;38.42;;;;;;;5.34;100.00;101298.78;4896949;29;20044;-69
2023/04/21 04:36:18;;;;;;;62.22;38.47;;;;;;;5.36;100.00;101297.13;4878234;29;20037;-69
2023/04/21 04:38:44;;;;;;;67.38;39.40;;;;;;;5.36;100.00;101291.91;4913593;29;20481;-69
2023/04/21 04:41:11;;;;;;;65.80;41.05;;;;;;;5.31;100.00;101294.41;4869239;29;20400;-69
2023/04/21 04:43:38;;;;;;;70.35;40.15;;;;;;;5.33;100.00;101286.63;4884259;29;20078;-69
2023/04/21 04:46:04;;;;;;;70.35;40.30;;;;;;;5.33;100.00;101294.44;4883916;29;20028;-69
2023/04/21 04:48:30;;;;;;;69.18;41.20;;;;;;;5.34;100.00;101299.69;4865671;29;20044;-71
2023/04/21 04:50:58;;;;;;;66.95;40.28;;;;;;;5.34;100.00;101296.19;4892138;29;20029;-71
2023/04/21 04:53:23;;;;;;;68.35;40.03;;;;;;;5.33;100.00;101295.34;4875687;29;20056;-71
2023/04/21 04:55:49;;;;;;;66.35;39.63;;;;;;;5.31;100.00;101302.22;4874988;29;20039;-71
2023/04/21 04:58:14;;;;;;;66.15;39.85;;;;;;;5.32;100.00;101293.56;4868919;29;20047;-71
2023/04/21 05:00:41;;;;;;;71.22;40.67;;;;;;;5.30;100.00;101292.69;4883963;29;20040;-74
2023/04/21 05:03:06;;;;;;;68.22;40.85;;;;;;;5.29;100.00;101303.91;4885954;29;20040;-74
2023/04/21 05:05:31;;;;;;;71.65;41.85;;;;;;;5.32;100.00;101308.31;4868782;29;20063;-74
2023/04/21 05:07:57;;;;;;;67.25;40.78;;;;;;;5.33;100.00;101315.22;4869842;29;20040;-74
2023/04/21 05:10:23;;;;;;;65.50;40.20;;;;;;;5.36;100.00;101315.31;4876056;29;20044;-73
2023/04/21 05:12:48;;;;;;;74.50;42.03;;;;;;;5.36;100.00;101307.50;4914047;29;20044;-75
2023/04/21 05:15:14;;;;;;;75.43;42.70;;;;;;;5.38;100.00;101304.06;4869718;29;20068;-75
2023/04/21 05:17:39;;;;;;;68.60;40.58;;;;;;;5.38;100.00;101311.00;4884476;29;20040;-74
2023/04/21 05:20:06;;;;;;;71.28;41.08;;;;;;;5.41;100.00;101318.84;4882774;29;20049;-75
2023/04/21 05:22:36;;;;;;;75.03;43.67;;;;;;;5.42;100.00;101318.00;4889653;29;20036;-74
2023/04/21 05:25:02;;;;;;;72.25;42.28;;;;;;;5.43;100.00;101319.75;4895612;29;20036;-74
2023/04/21 05:27:28;;;;;;;76.30;42.38;;;;;;;5.45;100.00;101320.66;4899546;29;20404;-74
2023/04/21 05:29:54;;;;;;;80.35;44.83;;;;;;;5.50;100.00;101318.13;4864726;29;20489;-75
2023/04/21 05:32:19;;;;;;;75.75;43.28;;;;;;;5.53;100.00;101316.47;4863962;29;20044;-74
2023/04/21 05:34:48;;;;;;;80.10;44.63;;;;;;;5.57;100.00;101325.16;4874435;29;20108;-74
2023/04/21 05:37:13;;;;;;;81.05;44.72;;;;;;;5.61;100.00;101320.91;4866420;29;20080;-75
2023/04/21 05:39:39;;;;;;;77.05;43.85;;;;;;;5.68;100.00;101321.03;4878745;29;20072;-75
2023/04/21 05:42:05;;;;;;;78.45;45.22;;;;;;;5.76;100.00;101325.47;4877122;29;20123;-75
2023/04/21 05:44:30;;;;;;;77.57;45.08;;;;;;;5.81;100.00;101329.91;4915254;29;20048;-74
2023/04/21 05:46:56;;;;;;;76.95;45.55;;;;;;;5.89;100.00;101338.69;4899855;29;20522;-74
2023/04/21 05:49:21;;;;;;;74.82;44.03;;;;;;;5.95;100.00;101329.22;4884365;29;20130;-75
2023/04/21 05:51:47;;;;;;;73.60;44.63;;;;;;;6.00;100.00;101335.41;4887002;29;20048;-75
2023/04/21 05:54:12;;;;;;;73.43;43.80;;;;;;;6.08;100.00;101339.00;4868754;29;20055;-75
2023/04/21 05:56:38;;;;;;;73.90;43.60;;;;;;;6.15;100.00;101338.25;4884953;29;20123;-74
2023/04/21 05:59:05;;;;;;;72.63;42.85;;;;;;;6.17;100.00;101336.53;4885856;29;20208;-75
2023/04/21 06:01:31;;;;;;;70.22;45.13;;;;;;;6.29;100.00;101337.56;4888174;29;20048;-71
2023/04/21 06:03:56;;;;;;;70.43;42.20;;;;;;;6.33;100.00;101341.97;4912614;29;20066;-71
2023/04/21 06:06:22;;;;;;;68.57;42.33;;;;;;;6.38;100.00;101340.31;4868583;29;20040;-71
2023/04/21 06:08:47;;;;;;;69.97;42.85;;;;;;;6.40;100.00;101336.84;4868916;29;20051;-71
2023/04/21 06:11:13;;;;;;;66.95;42.38;;;;;;;6.48;100.00;101339.56;4880770;29;20055;-71
2023/04/21 06:13:38;;;;;;;71.53;42.58;;;;;;;6.57;100.00;101328.41;4870156;29;20043;-71
2023/04/21 06:16:04;;;;;;;68.55;41.80;;;;;;;6.66;100.00;101327.63;4884195;29;20034;-71
2023/04/21 06:18:29;;;;;;;68.80;43.72;;;;;;;6.82;100.00;101334.75;4865611;29;20076;-71
2023/04/21 06:20:55;;;;;;;73.50;44.97;;;;;;;6.97;100.00;101327.97;4898100;29;20040;-71
2023/04/21 06:23:21;;;;;;;65.82;42.80;;;;;;;7.03;100.00;101323.72;4866874;29;20044;-71
2023/04/21 06:25:57;;;;;;;67.22;42.92;;;;;;;7.24;100.00;101323.06;4890571;29;20031;-71
2023/04/21 06:28:22;;;;;;;76.53;46.05;;;;;;;7.48;100.00;101321.53;4890969;29;20048;-71
2023/04/21 06:30:48;;;;;;;67.35;45.05;;;;;;;7.85;100.00;101319.22;4866117;29;20080;-71
2023/04/21 06:33:13;;;;;;;61.40;40.42;;;;;;;7.97;100.00;101321.03;4888915;29;20042;-71
2023/04/21 06:35:39;;;;;;;62.88;40.70;;;;;;;8.29;98.97;101323.84;4896973;29;20055;-71
2023/04/21 06:38:04;;;;;;;59.53;40.10;;;;;;;8.53;97.71;101324.84;4864377;29;20079;-71
2023/04/21 06:40:30;;;;;;;54.20;38.20;;;;;;;8.91;96.61;101329.34;4868271;29;20063;-71
2023/04/21 06:42:56;;;;;;;51.25;35.53;;;;;;;9.14;93.75;101325.94;4882939;29;20477;-71
2023/04/21 06:45:22;;;;;;;49.70;35.30;;;;;;;9.40;91.91;101327.72;4882825;29;20052;-72
2023/04/21 06:47:47;;;;;;;42.97;32.67;;;;;;;9.52;88.98;101327.72;4883461;29;20449;-70
2023/04/21 06:50:13;;;;;;;44.65;32.15;;;;;;;9.64;88.46;101327.72;4883232;29;20464;-71
2023/04/21 06:52:38;;;;;;;42.42;31.55;;;;;;;9.87;88.76;101325.09;4887951;29;20529;-69
2023/04/21 06:55:04;;;;;;;42.13;31.17;;;;;;;10.05;88.13;101325.94;4865040;29;20477;-69
2023/04/21 06:57:30;;;;;;;40.03;30.27;;;;;;;10.26;86.08;101332.88;4879570;29;20060;-69
2023/04/21 07:00:16;;;;;;;38.15;28.75;;;;;;;10.44;84.84;101331.09;4899303;29;20499;-69
2023/04/21 07:02:41;;;;;;;42.47;30.33;;;;;;;10.75;86.64;101335.34;4881636;29;20131;-69
2023/04/21 07:05:07;;;;;;;37.25;28.13;;;;;;;10.71;82.29;101333.59;4871453;29;20404;-69
2023/04/21 07:07:33;;;;;;;37.13;28.23;;;;;;;10.79;81.85;101336.22;4885734;29;20119;-69
2023/04/21 07:10:03;;;;;;;35.53;27.92;;;;;;;10.95;82.46;101329.13;4883520;29;20437;-69
2023/04/21 07:12:28;;;;;;;35.88;27.13;;;;;;;10.96;81.04;101335.25;4897392;29;20432;-69
2023/04/21 07:14:54;;;;;;;31.48;26.05;;;;;;;11.02;79.30;101335.19;4883558;29;20051;-69
2023/04/21 07:17:20;;;;;;;38.92;29.08;;;;;;;11.23;80.80;101319.34;4897488;29;20049;-69
2023/04/21 07:19:45;;;;;;;34.13;27.88;;;;;;;11.25;79.14;101330.69;4871266;29;20040;-69
2023/04/21 07:22:11;;;;;;;36.25;28.08;;;;;;;11.08;76.65;101343.91;4883457;29;20060;-69
2023/04/21 07:24:36;;;;;;;36.08;28.35;;;;;;;11.14;78.79;101345.63;4895290;29;20048;-73
2023/04/21 07:27:02;;;;;;;37.47;27.95;;;;;;;11.15;79.21;101336.00;4898936;29;20068;-73
2023/04/21 07:29:28;;;;;;;35.03;28.40;;;;;;;11.17;77.88;101329.00;4891552;29;20074;-73
2023/04/21 07:31:55;;;;;;;35.33;28.42;;;;;;;11.12;77.38;101333.41;4902707;29;20040;-73
2023/04/21 07:34:20;;;;;;;35.83;29.17;;;;;;;11.18;78.46;101315.03;4900743;29;20036;-73
2023/04/21 07:36:46;;;;;;;36.47;29.17;;;;;;;11.20;77.18;101319.34;4901813;29;20059;-73
2023/04/21 07:39:11;;;;;;;34.25;27.52;;;;;;;11.18;77.36;101310.63;4890170;29;20059;-73
2023/04/21 07:41:37;;;;;;;32.00;26.48;;;;;;;11.31;75.27;101306.16;4865697;29;20048;-73
2023/04/21 07:44:03;;;;;;;34.70;28.05;;;;;;;11.54;77.24;101313.00;4897381;29;20052;-74
2023/04/21 07:46:31;;;;;;;31.13;26.23;;;;;;;11.66;75.84;101312.03;4869946;29;20397;-74
2023/04/21 07:48:57;;;;;;;35.03;27.63;;;;;;;11.59;74.86;101316.44;4883247;29;20049;-74
2023/04/21 07:51:23;;;;;;;31.30;25.85;;;;;;;11.95;75.80;101319.66;4875083;29;20040;-70
2023/04/21 07:53:49;;;;;;;30.85;25.50;;;;;;;12.06;71.63;101317.78;4871413;29;20134;-69
2023/04/21 07:56:15;;;;;;;27.23;22.58;;;;;;;12.07;72.03;101321.31;4914560;29;20059;-70
2023/04/21 07:58:41;;;;;;;30.23;23.83;;;;;;;12.08;72.41;101313.41;4902306;29;20084;-70
2023/04/21 08:01:06;;;;;;;28.30;22.15;;;;;;;12.16;71.13;101312.44;4886771;29;20342;-70
2023/04/21 08:03:31;;;;;;;27.45;21.27;;;;;;;12.45;71.59;101307.72;4901605;29;20130;-69
2023/04/21 08:05:57;;;;;;;24.30;20.58;;;;;;;12.41;70.22;101313.91;4870922;29;20136;-69
2023/04/21 08:08:22;;;;;;;25.95;21.13;;;;;;;12.60;70.67;101316.31;4886675;29;20103;-69
2023/04/21 08:10:50;;;;;;;23.75;19.80;;;;;;;12.77;70.46;101316.09;4886398;29;20461;-69
2023/04/21 08:13:16;;;;;;;25.40;20.70;;;;;;;12.81;69.42;101313.41;4868082;29;20056;-70
2023/04/21 08:15:41;;;;;;;25.15;20.48;;;;;;;13.15;70.27;101312.91;4867864;29;20041;-69
2023/04/21 08:18:07;;;;;;;23.50;19.55;;;;;;;12.96;67.37;101316.72;4867939;29;20108;-69
2023/04/21 08:20:33;;;;;;;27.13;20.30;;;;;;;13.33;69.94;101310.88;4898514;29;20040;-69
2023/04/21 08:22:59;;;;;;;25.67;21.08;;;;;;;13.44;67.59;101314.25;4901390;29;20047;-69
2023/04/21 08:25:24;;;;;;;24.58;20.33;;;;;;;13.34;66.74;101321.41;4901865;29;20036;-69
2023/04/21 08:27:50;;;;;;;24.45;20.13;;;;;;;13.41;65.55;101318.72;4917621;29;20036;-70
2023/04/21 08:30:15;;;;;;;24.38;21.02;;;;;;;13.38;64.55;101311.72;4901599;29;20055;-70
2023/04/21 08:32:41;;;;;;;26.30;22.60;;;;;;;13.42;66.31;101305.53;4928459;29;20083;-70
2023/04/21 08:35:06;;;;;;;26.40;22.17;;;;;;;13.34;67.26;101307.38;4885767;29;20086;-69
2023/04/21 08:37:36;;;;;;;23.85;20.38;;;;;;;13.42;65.41;101309.91;4901758;29;20048;-70
2023/04/21 08:40:05;;;;;;;26.85;22.10;;;;;;;13.54;65.97;101308.84;4901472;29;20127;-69
2023/04/21 08:42:31;;;;;;;27.02;22.52;;;;;;;13.49;68.21;101309.81;4882668;29;20041;-69
2023/04/21 08:44:56;;;;;;;25.80;21.70;;;;;;;13.62;67.97;101310.47;4933259;29;20134;-69
2023/04/21 08:47:23;;;;;;;26.45;21.15;;;;;;;13.97;68.77;101310.75;4901605;29;20163;-69
2023/04/21 08:49:50;;;;;;;22.58;19.38;;;;;;;13.56;64.82;101302.69;4932997;29;20039;-69
2023/04/21 08:52:16;;;;;;;23.63;19.48;;;;;;;13.33;67.03;101303.00;4900476;29;20040;-70
2023/04/21 08:54:42;;;;;;;21.63;18.63;;;;;;;13.24;65.53;101311.03;4885856;29;20044;-69
2023/04/21 08:57:07;;;;;;;21.80;18.17;;;;;;;13.31;67.73;101296.91;4916987;29;20048;-69
2023/04/21 08:59:33;;;;;;;22.13;19.05;;;;;;;13.15;66.33;101297.13;4894925;29;20040;-70
2023/04/21 09:02:16;;;;;;;26.20;19.73;;;;;;;13.17;68.62;101289.22;4917012;29;20476;-69
2023/04/21 09:04:46;;;;;;;22.55;18.88;;;;;;;12.99;66.75;101295.63;4932480;29;20032;-75
2023/04/21 09:07:30;;;;;;;22.85;19.35;;;;;;;13.01;67.90;101296.47;4916936;29;20135;-75
2023/04/21 09:09:59;;;;;;;23.35;20.42;;;;;;;12.94;67.39;101297.44;4912399;29;20036;-77
2023/04/21 09:12:26;;;;;;;23.65;18.20;;;;;;;13.05;67.26;101300.78;4901036;29;20089;-75
2023/04/21 09:14:52;;;;;;;22.83;19.58;;;;;;;13.06;66.54;101293.75;4885714;29;20075;-75
2023/04/21 09:17:22;;;;;;;24.13;19.88;;;;;;;13.22;67.72;101297.06;4885455;29;20071;-76
2023/04/21 09:19:48;;;;;;;21.38;18.98;;;;;;;13.35;67.26;101293.34;4900131;29;20032;-75
2023/04/21 09:22:15;;;;;;;22.85;20.00;;;;;;;13.43;67.39;101299.38;4884951;29;20485;-76
2023/04/21 09:24:45;;;;;;;23.88;18.33;;;;;;;13.32;65.87;101290.75;4900953;29;20040;-75
2023/04/21 09:27:11;;;;;;;22.77;18.65;;;;;;;13.36;68.85;101284.56;4900921;29;20048;-76
2023/04/21 09:29:36;;;;;;;19.88;17.77;;;;;;;13.20;67.20;101289.16;4900837;29;20036;-76
2023/04/21 09:32:02;;;;;;;19.05;16.95;;;;;;;13.28;66.09;101286.41;4898426;29;20055;-75
2023/04/21 09:34:28;;;;;;;20.15;16.67;;;;;;;13.39;67.67;101288.91;4916290;29;20036;-75
2023/04/21 09:37:01;;;;;;;19.90;16.77;;;;;;;13.52;67.83;101290.47;4900526;29;20048;-76
2023/04/21 09:39:29;;;;;;;23.08;19.08;;;;;;;13.65;68.13;101294.59;4932297;29;20032;-76
2023/04/21 09:41:56;;;;;;;20.35;17.60;;;;;;;13.73;66.50;101289.19;4919861;29;20036;-77
2023/04/21 09:44:22;;;;;;;20.75;16.08;;;;;;;13.72;65.10;101299.75;4884979;29;20044;-75
2023/04/21 09:46:49;;;;;;;18.77;15.18;;;;;;;13.52;64.92;101296.56;4884997;29;20095;-75
2023/04/21 09:49:21;;;;;;;20.30;17.30;;;;;;;13.74;67.63;101285.66;4900082;29;20052;-74
2023/04/21 09:51:47;;;;;;;16.20;14.50;;;;;;;13.96;66.55;101287.91;4898858;29;20040;-76
2023/04/21 09:54:18;;;;;;;19.15;15.18;;;;;;;13.89;66.31;101279.25;4881347;29;20044;-74
2023/04/21 09:56:48;;;;;;;17.58;15.32;;;;;;;13.72;65.81;101290.13;4881493;29;20107;-76
2023/04/21 09:59:19;;;;;;;22.08;16.83;;;;;;;13.95;66.77;101273.88;4902509;29;20150;-75
2023/04/21 10:01:49;;;;;;;16.60;14.02;;;;;;;13.99;63.11;101278.19;4915298;29;20044;-75
2023/04/21 10:04:14;;;;;;;17.95;14.95;;;;;;;13.88;64.01;101279.28;4900184;29;20039;-75
2023/04/21 10:06:40;;;;;;;19.40;15.68;;;;;;;14.08;64.12;101269.25;4880899;29;20498;-74
2023/04/21 10:09:08;;;;;;;20.90;17.58;;;;;;;14.41;66.66;101272.09;4881484;29;20053;-76
2023/04/21 10:11:35;;;;;;;20.50;16.83;;;;;;;14.42;64.40;101273.81;4883186;29;20055;-75
2023/04/21 10:14:02;;;;;;;17.05;14.88;;;;;;;14.41;62.44;101272.09;4884773;29;20157;-70
2023/04/21 10:16:27;;;;;;;18.17;14.80;;;;;;;14.49;62.61;101275.41;4900042;29;20382;-69
2023/04/21 10:18:53;;;;;;;17.17;14.75;;;;;;;14.46;62.52;101272.84;4884420;29;20187;-69
2023/04/21 10:21:21;;;;;;;17.27;14.80;;;;;;;14.60;61.44;101262.03;4896801;29;20417;-69
2023/04/21 10:23:48;;;;;;;22.55;16.98;;;;;;;14.72;65.62;101277.63;4915843;29;20064;-70
2023/04/21 10:26:28;;;;;;;18.17;15.15;;;;;;;14.74;60.84;101253.84;4915404;29;20115;-70
2023/04/21 10:29:03;;;;;;;18.75;16.33;;;;;;;14.83;64.32;101260.69;4899906;29;20404;-70
2023/04/21 10:31:30;;;;;;;19.30;16.33;;;;;;;15.05;63.55;101246.06;4883378;29;20044;-70
2023/04/21 10:34:07;;;;;;;19.27;15.95;;;;;;;15.00;62.16;101242.69;4899775;29;20036;-69
2023/04/21 10:36:36;;;;;;;14.63;12.27;;;;;;;14.85;62.58;101249.16;4899275;29;20478;-69
2023/04/21 10:39:02;;;;;;;18.85;15.63;;;;;;;15.02;62.52;101238.22;4916681;29;20056;-69
2023/04/21 10:41:29;;;;;;;16.08;13.98;;;;;;;14.84;60.03;101234.25;4878709;29;20055;-70
2023/04/21 10:43:59;;;;;;;18.77;15.02;;;;;;;14.68;62.98;101236.38;4896653;29;20044;-69
2023/04/21 10:46:45;;;;;;;18.05;15.35;;;;;;;14.67;61.47;101228.50;4899485;29;20433;-69
2023/04/21 10:49:20;;;;;;;19.05;16.70;;;;;;;14.55;60.91;101221.69;4915067;29;20044;-70
2023/04/21 10:51:58;;;;;;;21.15;17.35;;;;;;;14.53;62.32;101221.72;4898057;29;20039;-70
2023/04/21 10:54:45;;;;;;;17.70;15.75;;;;;;;14.55;61.12;101222.56;4896193;29;20048;-69
2023/04/21 10:57:12;;;;;;;19.75;17.70;;;;;;;14.38;60.69;101216.81;4899446;29;20036;-69
2023/04/21 10:59:38;;;;;;;20.60;17.52;;;;;;;14.22;59.72;101218.88;4914867;29;20051;-72
2023/04/21 11:02:11;;;;;;;21.05;18.83;;;;;;;14.51;63.01;101209.47;4883031;29;20496;-74
2023/04/21 11:04:40;;;;;;;21.45;19.15;;;;;;;14.62;61.31;101204.00;4914493;29;20576;-74
2023/04/21 11:07:18;;;;;;;20.58;18.52;;;;;;;14.83;61.83;101200.00;4930950;29;20032;-74
2023/04/21 11:09:46;;;;;;;23.08;20.67;;;;;;;15.01;63.60;101196.03;4898498;29;20381;-75